sensor_id;sensor_type;location;lat;lon;timestamp;P1;durP1;ratioP1;P2;durP2;ratioP2
82288;SDS011;71889;39.264;-120.910;2024-01-30T00:01:16;7.32;;;1.33;;
82288;SDS011;71889;39.264;-120.910;2024-01-30T00:03:43;2.90;;;1.10;;
82288;SDS011;71889;39.264;-120.910;2024-01-30T00:06:09;5.03;;;1.33;;
82288;SDS011;71889;39.264;-120.910;2024-01-30T00:08:36;10.00;;;1.13;;
82288;SDS011;71889;39.264;-120.910;2024-01-30T00:11:03;5.35;;;0.93;;
82288;SDS011;71889;39.264;-120.910;2024-01-30T00:13:30;2.92;;;0.82;;
82288;SDS011;71889;39.264;-120.910;2024-01-30T00:15:57;3.03;;;0.60;;
82288;SDS011;71889;39.264;-120.910;2024-01-30T00:18:24;2.58;;;0.90;;
82288;SDS011;71889;39.264;-120.910;2024-01-30T00:20:50;2.75;;;1.20;;
82288;SDS011;71889;39.264;-120.910;2024-01-30T00:23:17;2.45;;;0.75;;
82288;SDS011;71889;39.264;-120.910;2024-01-30T00:25:44;2.50;;;1.33;;
82288;SDS011;71889;39.264;-120.910;2024-01-30T00:28:10;2.05;;;0.63;;
82288;SDS011;71889;39.264;-120.910;2024-01-30T00:30:37;3.03;;;0.80;;
82288;SDS011;71889;39.264;-120.910;2024-01-30T00:33:04;1.65;;;0.70;;
82288;SDS011;71889;39.264;-120.910;2024-01-30T00:35:31;2.35;;;0.70;;
82288;SDS011;71889;39.264;-120.910;2024-01-30T00:37:57;1.42;;;0.68;;
82288;SDS011;71889;39.264;-120.910;2024-01-30T00:40:26;3.13;;;0.77;;
82288;SDS011;71889;39.264;-120.910;2024-01-30T00:42:53;2.70;;;0.73;;
82288;SDS011;71889;39.264;-120.910;2024-01-30T00:45:21;2.95;;;0.70;;
82288;SDS011;71889;39.264;-120.910;2024-01-30T00:47:49;2.55;;;0.70;;
82288;SDS011;71889;39.264;-120.910;2024-01-30T00:50:16;5.03;;;0.70;;
82288;SDS011;71889;39.264;-120.910;2024-01-30T00:52:42;2.30;;;1.23;;
82288;SDS011;71889;39.264;-120.910;2024-01-30T00:55:10;3.30;;;1.02;;
82288;SDS011;71889;39.264;-120.910;2024-01-30T00:57:37;2.90;;;1.73;;
82288;SDS011;71889;39.264;-120.910;2024-01-30T01:00:04;2.75;;;2.00;;
82288;SDS011;71889;39.264;-120.910;2024-01-30T01:02:34;3.60;;;2.15;;
82288;SDS011;71889;39.264;-120.910;2024-01-30T01:05:01;2.47;;;1.67;;
82288;SDS011;71889;39.264;-120.910;2024-01-30T01:07:31;2.35;;;1.35;;
82288;SDS011;71889;39.264;-120.910;2024-01-30T01:09:57;10.23;;;1.30;;
82288;SDS011;71889;39.264;-120.910;2024-01-30T01:12:27;4.88;;;1.27;;
82288;SDS011;71889;39.264;-120.910;2024-01-30T01:17:20;5.78;;;2.05;;
82288;SDS011;71889;39.264;-120.910;2024-01-30T01:19:47;3.70;;;0.70;;
82288;SDS011;71889;39.264;-120.910;2024-01-30T01:22:15;1.33;;;0.70;;
82288;SDS011;71889;39.264;-120.910;2024-01-30T01:24:43;1.38;;;0.70;;
82288;SDS011;71889;39.264;-120.910;2024-01-30T01:27:10;1.40;;;0.60;;
82288;SDS011;71889;39.264;-120.910;2024-01-30T01:29:37;1.20;;;0.70;;
82288;SDS011;71889;39.264;-120.910;2024-01-30T01:32:04;2.75;;;0.82;;
82288;SDS011;71889;39.264;-120.910;2024-01-30T01:34:31;2.45;;;1.05;;
82288;SDS011;71889;39.264;-120.910;2024-01-30T01:36:57;4.45;;;1.45;;
82288;SDS011;71889;39.264;-120.910;2024-01-30T01:39:33;2.88;;;1.50;;
82288;SDS011;71889;39.264;-120.910;2024-01-30T01:42:00;6.43;;;1.70;;
82288;SDS011;71889;39.264;-120.910;2024-01-30T01:44:27;3.03;;;1.33;;
82288;SDS011;71889;39.264;-120.910;2024-01-30T01:46:54;2.70;;;1.48;;
82288;SDS011;71889;39.264;-120.910;2024-01-30T01:49:22;5.50;;;2.20;;
82288;SDS011;71889;39.264;-120.910;2024-01-30T01:51:50;4.40;;;2.30;;
82288;SDS011;71889;39.264;-120.910;2024-01-30T01:54:18;3.60;;;1.85;;
82288;SDS011;71889;39.264;-120.910;2024-01-30T01:56:48;5.38;;;2.60;;
82288;SDS011;71889;39.264;-120.910;2024-01-30T01:59:14;7.05;;;2.92;;
82288;SDS011;71889;39.264;-120.910;2024-01-30T02:01:41;4.07;;;2.15;;
82288;SDS011;71889;39.264;-120.910;2024-01-30T02:04:08;4.50;;;2.42;;
82288;SDS011;71889;39.264;-120.910;2024-01-30T02:06:35;3.78;;;2.40;;
82288;SDS011;71889;39.264;-120.910;2024-01-30T02:09:02;9.02;;;3.95;;
82288;SDS011;71889;39.264;-120.910;2024-01-30T02:11:30;16.73;;;6.88;;
82288;SDS011;71889;39.264;-120.910;2024-01-30T02:13:56;35.53;;;13.20;;
82288;SDS011;71889;39.264;-120.910;2024-01-30T02:16:23;101.80;;;41.05;;
82288;SDS011;71889;39.264;-120.910;2024-01-30T02:18:50;181.45;;;74.75;;
82288;SDS011;71889;39.264;-120.910;2024-01-30T02:21:17;195.15;;;79.85;;
82288;SDS011;71889;39.264;-120.910;2024-01-30T02:23:48;177.45;;;73.90;;
82288;SDS011;71889;39.264;-120.910;2024-01-30T02:26:16;180.38;;;74.30;;
82288;SDS011;71889;39.264;-120.910;2024-01-30T02:28:42;129.25;;;54.83;;
82288;SDS011;71889;39.264;-120.910;2024-01-30T02:31:09;68.18;;;28.65;;
82288;SDS011;71889;39.264;-120.910;2024-01-30T02:33:36;112.90;;;46.20;;
82288;SDS011;71889;39.264;-120.910;2024-01-30T02:36:03;85.90;;;33.42;;
82288;SDS011;71889;39.264;-120.910;2024-01-30T02:38:29;53.70;;;22.35;;
82288;SDS011;71889;39.264;-120.910;2024-01-30T02:40:56;53.42;;;22.48;;
82288;SDS011;71889;39.264;-120.910;2024-01-30T02:43:23;24.42;;;11.07;;
82288;SDS011;71889;39.264;-120.910;2024-01-30T02:45:50;39.13;;;15.88;;
82288;SDS011;71889;39.264;-120.910;2024-01-30T02:48:17;23.90;;;10.73;;
82288;SDS011;71889;39.264;-120.910;2024-01-30T02:50:43;16.65;;;7.85;;
82288;SDS011;71889;39.264;-120.910;2024-01-30T02:53:11;17.02;;;6.55;;
82288;SDS011;71889;39.264;-120.910;2024-01-30T02:55:38;14.63;;;5.97;;
82288;SDS011;71889;39.264;-120.910;2024-01-30T02:58:04;13.00;;;5.45;;
82288;SDS011;71889;39.264;-120.910;2024-01-30T03:00:32;11.38;;;5.65;;
82288;SDS011;71889;39.264;-120.910;2024-01-30T03:02:59;9.27;;;4.65;;
82288;SDS011;71889;39.264;-120.910;2024-01-30T03:05:26;8.38;;;4.40;;
82288;SDS011;71889;39.264;-120.910;2024-01-30T03:07:52;10.98;;;4.57;;
82288;SDS011;71889;39.264;-120.910;2024-01-30T03:10:19;18.05;;;8.93;;
82288;SDS011;71889;39.264;-120.910;2024-01-30T03:12:46;34.15;;;14.68;;
82288;SDS011;71889;39.264;-120.910;2024-01-30T03:15:12;28.92;;;13.05;;
82288;SDS011;71889;39.264;-120.910;2024-01-30T03:17:41;26.08;;;10.55;;
82288;SDS011;71889;39.264;-120.910;2024-01-30T03:20:08;18.65;;;9.02;;
82288;SDS011;71889;39.264;-120.910;2024-01-30T03:22:34;19.85;;;7.97;;
82288;SDS011;71889;39.264;-120.910;2024-01-30T03:25:01;18.92;;;7.97;;
82288;SDS011;71889;39.264;-120.910;2024-01-30T03:27:28;5.38;;;2.55;;
82288;SDS011;71889;39.264;-120.910;2024-01-30T03:29:55;10.35;;;4.57;;
82288;SDS011;71889;39.264;-120.910;2024-01-30T03:32:21;9.60;;;3.78;;
82288;SDS011;71889;39.264;-120.910;2024-01-30T03:34:48;7.80;;;3.60;;
82288;SDS011;71889;39.264;-120.910;2024-01-30T03:37:15;7.45;;;2.92;;
82288;SDS011;71889;39.264;-120.910;2024-01-30T03:39:42;8.13;;;3.53;;
82288;SDS011;71889;39.264;-120.910;2024-01-30T03:42:08;10.02;;;4.00;;
82288;SDS011;71889;39.264;-120.910;2024-01-30T03:44:35;5.82;;;3.10;;
82288;SDS011;71889;39.264;-120.910;2024-01-30T03:47:02;6.13;;;3.67;;
82288;SDS011;71889;39.264;-120.910;2024-01-30T03:49:29;8.63;;;4.45;;
82288;SDS011;71889;39.264;-120.910;2024-01-30T03:51:55;7.18;;;3.80;;
82288;SDS011;71889;39.264;-120.910;2024-01-30T03:54:22;5.57;;;2.70;;
82288;SDS011;71889;39.264;-120.910;2024-01-30T03:56:49;7.50;;;2.60;;
82288;SDS011;71889;39.264;-120.910;2024-01-30T03:59:17;5.25;;;2.20;;
82288;SDS011;71889;39.264;-120.910;2024-01-30T04:01:48;7.43;;;2.55;;
82288;SDS011;71889;39.264;-120.910;2024-01-30T04:04:15;6.57;;;3.28;;
82288;SDS011;71889;39.264;-120.910;2024-01-30T04:06:42;6.28;;;2.70;;
82288;SDS011;71889;39.264;-120.910;2024-01-30T04:09:08;6.93;;;2.88;;
82288;SDS011;71889;39.264;-120.910;2024-01-30T04:11:36;6.53;;;2.90;;
82288;SDS011;71889;39.264;-120.910;2024-01-30T04:14:03;7.18;;;2.67;;
82288;SDS011;71889;39.264;-120.910;2024-01-30T04:16:30;6.47;;;3.13;;
82288;SDS011;71889;39.264;-120.910;2024-01-30T04:18:57;4.47;;;2.45;;
82288;SDS011;71889;39.264;-120.910;2024-01-30T04:21:24;4.68;;;2.20;;
82288;SDS011;71889;39.264;-120.910;2024-01-30T04:23:51;5.53;;;2.55;;
82288;SDS011;71889;39.264;-120.910;2024-01-30T04:26:18;4.95;;;2.15;;
82288;SDS011;71889;39.264;-120.910;2024-01-30T04:28:45;4.22;;;1.75;;
82288;SDS011;71889;39.264;-120.910;2024-01-30T04:31:12;7.25;;;1.85;;
82288;SDS011;71889;39.264;-120.910;2024-01-30T04:33:39;7.45;;;1.70;;
82288;SDS011;71889;39.264;-120.910;2024-01-30T04:36:07;5.32;;;1.85;;
82288;SDS011;71889;39.264;-120.910;2024-01-30T04:38:38;4.07;;;1.90;;
82288;SDS011;71889;39.264;-120.910;2024-01-30T04:41:04;11.85;;;2.15;;
82288;SDS011;71889;39.264;-120.910;2024-01-30T04:43:31;4.07;;;1.92;;
82288;SDS011;71889;39.264;-120.910;2024-01-30T04:45:58;7.15;;;2.92;;
82288;SDS011;71889;39.264;-120.910;2024-01-30T04:48:24;7.45;;;3.20;;
82288;SDS011;71889;39.264;-120.910;2024-01-30T04:50:51;9.05;;;3.35;;
82288;SDS011;71889;39.264;-120.910;2024-01-30T04:53:18;16.42;;;6.80;;
82288;SDS011;71889;39.264;-120.910;2024-01-30T04:55:44;25.40;;;11.35;;
82288;SDS011;71889;39.264;-120.910;2024-01-30T04:58:11;22.33;;;8.70;;
82288;SDS011;71889;39.264;-120.910;2024-01-30T05:00:38;10.10;;;5.28;;
82288;SDS011;71889;39.264;-120.910;2024-01-30T05:03:05;9.88;;;3.78;;
82288;SDS011;71889;39.264;-120.910;2024-01-30T05:05:31;9.65;;;3.97;;
82288;SDS011;71889;39.264;-120.910;2024-01-30T05:07:58;10.77;;;5.90;;
82288;SDS011;71889;39.264;-120.910;2024-01-30T05:10:25;13.73;;;6.20;;
82288;SDS011;71889;39.264;-120.910;2024-01-30T05:12:54;15.85;;;6.47;;
82288;SDS011;71889;39.264;-120.910;2024-01-30T05:15:20;11.95;;;5.35;;
82288;SDS011;71889;39.264;-120.910;2024-01-30T05:17:47;8.40;;;3.95;;
82288;SDS011;71889;39.264;-120.910;2024-01-30T05:20:14;5.85;;;3.03;;
82288;SDS011;71889;39.264;-120.910;2024-01-30T05:22:40;5.72;;;2.30;;
82288;SDS011;71889;39.264;-120.910;2024-01-30T05:25:11;4.63;;;2.33;;
82288;SDS011;71889;39.264;-120.910;2024-01-30T05:27:37;6.88;;;2.58;;
82288;SDS011;71889;39.264;-120.910;2024-01-30T05:30:05;5.20;;;2.60;;
82288;SDS011;71889;39.264;-120.910;2024-01-30T05:32:33;5.13;;;2.70;;
82288;SDS011;71889;39.264;-120.910;2024-01-30T05:34:59;6.07;;;2.63;;
82288;SDS011;71889;39.264;-120.910;2024-01-30T05:37:26;4.22;;;2.35;;
82288;SDS011;71889;39.264;-120.910;2024-01-30T05:39:55;4.15;;;1.73;;
82288;SDS011;71889;39.264;-120.910;2024-01-30T05:42:25;4.53;;;1.92;;
82288;SDS011;71889;39.264;-120.910;2024-01-30T05:44:51;4.03;;;2.00;;
82288;SDS011;71889;39.264;-120.910;2024-01-30T05:47:18;3.47;;;1.77;;
82288;SDS011;71889;39.264;-120.910;2024-01-30T05:49:45;3.95;;;1.80;;
82288;SDS011;71889;39.264;-120.910;2024-01-30T05:52:12;2.78;;;1.27;;
82288;SDS011;71889;39.264;-120.910;2024-01-30T05:54:38;3.00;;;1.30;;
82288;SDS011;71889;39.264;-120.910;2024-01-30T05:57:05;2.20;;;1.15;;
82288;SDS011;71889;39.264;-120.910;2024-01-30T05:59:32;2.10;;;1.10;;
82288;SDS011;71889;39.264;-120.910;2024-01-30T06:01:59;2.60;;;1.25;;
82288;SDS011;71889;39.264;-120.910;2024-01-30T06:04:25;3.50;;;1.40;;
82288;SDS011;71889;39.264;-120.910;2024-01-30T06:06:52;4.22;;;1.63;;
82288;SDS011;71889;39.264;-120.910;2024-01-30T06:09:19;4.78;;;1.60;;
82288;SDS011;71889;39.264;-120.910;2024-01-30T06:11:46;4.93;;;1.70;;
82288;SDS011;71889;39.264;-120.910;2024-01-30T06:14:12;2.55;;;1.55;;
82288;SDS011;71889;39.264;-120.910;2024-01-30T06:16:39;4.80;;;1.30;;
82288;SDS011;71889;39.264;-120.910;2024-01-30T06:19:07;5.50;;;1.75;;
82288;SDS011;71889;39.264;-120.910;2024-01-30T06:21:34;3.33;;;1.42;;
82288;SDS011;71889;39.264;-120.910;2024-01-30T06:24:04;3.13;;;1.58;;
82288;SDS011;71889;39.264;-120.910;2024-01-30T06:26:31;3.25;;;1.50;;
82288;SDS011;71889;39.264;-120.910;2024-01-30T06:28:57;4.53;;;1.80;;
82288;SDS011;71889;39.264;-120.910;2024-01-30T06:31:24;4.13;;;1.58;;
82288;SDS011;71889;39.264;-120.910;2024-01-30T06:33:51;5.75;;;2.30;;
82288;SDS011;71889;39.264;-120.910;2024-01-30T06:36:18;15.30;;;5.65;;
82288;SDS011;71889;39.264;-120.910;2024-01-30T06:38:45;18.88;;;8.48;;
82288;SDS011;71889;39.264;-120.910;2024-01-30T06:41:12;14.75;;;6.43;;
82288;SDS011;71889;39.264;-120.910;2024-01-30T06:43:39;10.25;;;3.20;;
82288;SDS011;71889;39.264;-120.910;2024-01-30T06:46:11;4.78;;;1.92;;
82288;SDS011;71889;39.264;-120.910;2024-01-30T06:48:38;8.07;;;2.90;;
82288;SDS011;71889;39.264;-120.910;2024-01-30T06:51:06;8.45;;;3.35;;
82288;SDS011;71889;39.264;-120.910;2024-01-30T06:53:32;7.13;;;2.58;;
82288;SDS011;71889;39.264;-120.910;2024-01-30T06:55:59;3.53;;;1.48;;
82288;SDS011;71889;39.264;-120.910;2024-01-30T06:58:26;5.50;;;1.42;;
82288;SDS011;71889;39.264;-120.910;2024-01-30T07:00:53;7.93;;;2.80;;
82288;SDS011;71889;39.264;-120.910;2024-01-30T07:03:20;4.10;;;2.22;;
82288;SDS011;71889;39.264;-120.910;2024-01-30T07:05:47;2.83;;;1.58;;
82288;SDS011;71889;39.264;-120.910;2024-01-30T07:08:17;6.65;;;1.85;;
82288;SDS011;71889;39.264;-120.910;2024-01-30T07:10:44;6.40;;;1.95;;
82288;SDS011;71889;39.264;-120.910;2024-01-30T07:13:11;6.43;;;2.58;;
82288;SDS011;71889;39.264;-120.910;2024-01-30T07:15:38;3.50;;;1.70;;
82288;SDS011;71889;39.264;-120.910;2024-01-30T07:18:05;4.38;;;1.92;;
82288;SDS011;71889;39.264;-120.910;2024-01-30T07:20:33;4.65;;;2.33;;
82288;SDS011;71889;39.264;-120.910;2024-01-30T07:23:00;5.82;;;2.22;;
82288;SDS011;71889;39.264;-120.910;2024-01-30T07:25:28;9.02;;;3.75;;
82288;SDS011;71889;39.264;-120.910;2024-01-30T07:27:55;9.65;;;4.95;;
82288;SDS011;71889;39.264;-120.910;2024-01-30T07:30:23;6.97;;;2.08;;
82288;SDS011;71889;39.264;-120.910;2024-01-30T07:32:53;4.18;;;1.50;;
82288;SDS011;71889;39.264;-120.910;2024-01-30T07:35:19;1.90;;;0.95;;
82288;SDS011;71889;39.264;-120.910;2024-01-30T07:37:46;1.48;;;0.80;;
82288;SDS011;71889;39.264;-120.910;2024-01-30T07:40:13;1.75;;;0.75;;
82288;SDS011;71889;39.264;-120.910;2024-01-30T07:42:40;2.20;;;0.88;;
82288;SDS011;71889;39.264;-120.910;2024-01-30T07:47:36;7.78;;;1.90;;
82288;SDS011;71889;39.264;-120.910;2024-01-30T07:50:03;3.20;;;1.25;;
82288;SDS011;71889;39.264;-120.910;2024-01-30T07:52:32;5.88;;;1.88;;
82288;SDS011;71889;39.264;-120.910;2024-01-30T07:54:59;4.50;;;1.60;;
82288;SDS011;71889;39.264;-120.910;2024-01-30T07:57:26;5.45;;;1.30;;
82288;SDS011;71889;39.264;-120.910;2024-01-30T07:59:53;4.10;;;1.65;;
82288;SDS011;71889;39.264;-120.910;2024-01-30T08:02:19;8.68;;;3.00;;
82288;SDS011;71889;39.264;-120.910;2024-01-30T08:04:46;12.38;;;3.17;;
82288;SDS011;71889;39.264;-120.910;2024-01-30T08:07:14;4.95;;;1.73;;
82288;SDS011;71889;39.264;-120.910;2024-01-30T08:09:43;3.38;;;1.58;;
82288;SDS011;71889;39.264;-120.910;2024-01-30T08:12:09;2.85;;;1.25;;
82288;SDS011;71889;39.264;-120.910;2024-01-30T08:14:37;2.53;;;1.40;;
82288;SDS011;71889;39.264;-120.910;2024-01-30T08:17:04;5.03;;;2.20;;
82288;SDS011;71889;39.264;-120.910;2024-01-30T08:19:32;3.92;;;1.58;;
82288;SDS011;71889;39.264;-120.910;2024-01-30T08:21:59;6.15;;;2.10;;
82288;SDS011;71889;39.264;-120.910;2024-01-30T08:24:26;5.30;;;1.88;;
82288;SDS011;71889;39.264;-120.910;2024-01-30T08:26:53;4.68;;;1.13;;
82288;SDS011;71889;39.264;-120.910;2024-01-30T08:29:20;3.17;;;1.10;;
82288;SDS011;71889;39.264;-120.910;2024-01-30T08:31:46;2.90;;;0.93;;
82288;SDS011;71889;39.264;-120.910;2024-01-30T08:34:13;2.80;;;1.13;;
82288;SDS011;71889;39.264;-120.910;2024-01-30T08:36:40;2.00;;;0.85;;
82288;SDS011;71889;39.264;-120.910;2024-01-30T08:39:06;2.28;;;1.00;;
82288;SDS011;71889;39.264;-120.910;2024-01-30T08:41:33;3.67;;;1.13;;
82288;SDS011;71889;39.264;-120.910;2024-01-30T08:44:00;3.50;;;0.80;;
82288;SDS011;71889;39.264;-120.910;2024-01-30T08:46:27;2.75;;;1.02;;
82288;SDS011;71889;39.264;-120.910;2024-01-30T08:48:53;1.80;;;0.80;;
82288;SDS011;71889;39.264;-120.910;2024-01-30T08:51:20;2.17;;;0.70;;
82288;SDS011;71889;39.264;-120.910;2024-01-30T08:53:47;3.25;;;1.10;;
82288;SDS011;71889;39.264;-120.910;2024-01-30T08:56:14;4.35;;;1.10;;
82288;SDS011;71889;39.264;-120.910;2024-01-30T08:58:41;1.52;;;0.75;;
82288;SDS011;71889;39.264;-120.910;2024-01-30T09:01:08;1.35;;;0.80;;
82288;SDS011;71889;39.264;-120.910;2024-01-30T09:03:35;2.08;;;0.88;;
82288;SDS011;71889;39.264;-120.910;2024-01-30T09:06:08;2.15;;;0.70;;
82288;SDS011;71889;39.264;-120.910;2024-01-30T09:08:35;2.42;;;0.80;;
82288;SDS011;71889;39.264;-120.910;2024-01-30T09:11:02;1.58;;;0.88;;
82288;SDS011;71889;39.264;-120.910;2024-01-30T09:13:34;1.75;;;0.60;;
82288;SDS011;71889;39.264;-120.910;2024-01-30T09:16:01;2.30;;;0.80;;
82288;SDS011;71889;39.264;-120.910;2024-01-30T09:18:27;1.55;;;0.68;;
82288;SDS011;71889;39.264;-120.910;2024-01-30T09:20:54;1.77;;;0.60;;
82288;SDS011;71889;39.264;-120.910;2024-01-30T09:23:21;1.38;;;0.65;;
82288;SDS011;71889;39.264;-120.910;2024-01-30T09:25:48;2.22;;;0.98;;
82288;SDS011;71889;39.264;-120.910;2024-01-30T09:28:15;5.20;;;1.20;;
82288;SDS011;71889;39.264;-120.910;2024-01-30T09:30:42;3.10;;;1.00;;
82288;SDS011;71889;39.264;-120.910;2024-01-30T09:33:09;2.75;;;1.00;;
82288;SDS011;71889;39.264;-120.910;2024-01-30T09:35:36;2.47;;;0.70;;
82288;SDS011;71889;39.264;-120.910;2024-01-30T09:38:03;1.92;;;1.10;;
82288;SDS011;71889;39.264;-120.910;2024-01-30T09:40:30;1.83;;;0.55;;
82288;SDS011;71889;39.264;-120.910;2024-01-30T09:42:57;1.55;;;0.60;;
82288;SDS011;71889;39.264;-120.910;2024-01-30T09:45:27;1.70;;;1.05;;
82288;SDS011;71889;39.264;-120.910;2024-01-30T09:47:54;2.25;;;0.80;;
82288;SDS011;71889;39.264;-120.910;2024-01-30T09:50:21;1.48;;;0.77;;
82288;SDS011;71889;39.264;-120.910;2024-01-30T09:52:48;1.25;;;0.50;;
82288;SDS011;71889;39.264;-120.910;2024-01-30T09:55:15;2.20;;;0.70;;
82288;SDS011;71889;39.264;-120.910;2024-01-30T09:57:42;4.63;;;0.85;;
82288;SDS011;71889;39.264;-120.910;2024-01-30T10:00:12;1.63;;;0.57;;
82288;SDS011;71889;39.264;-120.910;2024-01-30T10:02:39;1.65;;;0.52;;
82288;SDS011;71889;39.264;-120.910;2024-01-30T10:05:06;2.60;;;0.60;;
82288;SDS011;71889;39.264;-120.910;2024-01-30T10:07:32;1.42;;;0.45;;
82288;SDS011;71889;39.264;-120.910;2024-01-30T10:10:02;2.63;;;0.70;;
82288;SDS011;71889;39.264;-120.910;2024-01-30T10:12:29;2.22;;;0.65;;
82288;SDS011;71889;39.264;-120.910;2024-01-30T10:14:56;1.40;;;0.65;;
82288;SDS011;71889;39.264;-120.910;2024-01-30T10:17:24;2.20;;;0.60;;
82288;SDS011;71889;39.264;-120.910;2024-01-30T10:19:52;1.38;;;0.52;;
82288;SDS011;71889;39.264;-120.910;2024-01-30T10:22:19;2.15;;;0.75;;
82288;SDS011;71889;39.264;-120.910;2024-01-30T10:24:46;1.88;;;0.73;;
82288;SDS011;71889;39.264;-120.910;2024-01-30T10:27:13;3.47;;;0.82;;
82288;SDS011;71889;39.264;-120.910;2024-01-30T10:29:40;1.92;;;0.90;;
82288;SDS011;71889;39.264;-120.910;2024-01-30T10:32:07;2.20;;;1.08;;
82288;SDS011;71889;39.264;-120.910;2024-01-30T10:34:36;1.13;;;0.70;;
82288;SDS011;71889;39.264;-120.910;2024-01-30T10:37:07;2.30;;;0.90;;
82288;SDS011;71889;39.264;-120.910;2024-01-30T10:39:43;1.60;;;0.70;;
82288;SDS011;71889;39.264;-120.910;2024-01-30T10:42:14;2.45;;;0.80;;
82288;SDS011;71889;39.264;-120.910;2024-01-30T10:44:49;1.23;;;0.52;;
82288;SDS011;71889;39.264;-120.910;2024-01-30T10:47:26;1.00;;;0.50;;
82288;SDS011;71889;39.264;-120.910;2024-01-30T10:49:53;2.50;;;0.77;;
82288;SDS011;71889;39.264;-120.910;2024-01-30T10:52:20;1.75;;;0.70;;
82288;SDS011;71889;39.264;-120.910;2024-01-30T10:54:47;2.20;;;0.75;;
82288;SDS011;71889;39.264;-120.910;2024-01-30T10:57:14;1.40;;;0.32;;
82288;SDS011;71889;39.264;-120.910;2024-01-30T10:59:41;1.10;;;0.50;;
82288;SDS011;71889;39.264;-120.910;2024-01-30T11:02:08;2.33;;;0.60;;
82288;SDS011;71889;39.264;-120.910;2024-01-30T11:04:42;1.00;;;0.70;;
82288;SDS011;71889;39.264;-120.910;2024-01-30T11:07:16;1.10;;;0.40;;
82288;SDS011;71889;39.264;-120.910;2024-01-30T11:12:40;1.95;;;0.85;;
82288;SDS011;71889;39.264;-120.910;2024-01-30T11:15:09;1.88;;;0.50;;
82288;SDS011;71889;39.264;-120.910;2024-01-30T11:17:49;2.28;;;0.45;;
82288;SDS011;71889;39.264;-120.910;2024-01-30T11:20:20;2.70;;;0.52;;
82288;SDS011;71889;39.264;-120.910;2024-01-30T11:22:48;1.73;;;0.57;;
82288;SDS011;71889;39.264;-120.910;2024-01-30T11:25:16;1.67;;;0.57;;
82288;SDS011;71889;39.264;-120.910;2024-01-30T11:27:43;0.60;;;0.40;;
82288;SDS011;71889;39.264;-120.910;2024-01-30T11:30:10;1.63;;;0.70;;
82288;SDS011;71889;39.264;-120.910;2024-01-30T11:32:37;1.15;;;0.50;;
82288;SDS011;71889;39.264;-120.910;2024-01-30T11:35:04;1.23;;;0.60;;
82288;SDS011;71889;39.264;-120.910;2024-01-30T11:37:32;1.48;;;0.65;;
82288;SDS011;71889;39.264;-120.910;2024-01-30T11:39:58;0.95;;;0.45;;
82288;SDS011;71889;39.264;-120.910;2024-01-30T11:42:25;0.65;;;0.30;;
82288;SDS011;71889;39.264;-120.910;2024-01-30T11:44:53;5.57;;;0.63;;
82288;SDS011;71889;39.264;-120.910;2024-01-30T11:47:19;1.52;;;0.50;;
82288;SDS011;71889;39.264;-120.910;2024-01-30T11:49:46;2.63;;;0.73;;
82288;SDS011;71889;39.264;-120.910;2024-01-30T11:52:13;2.42;;;0.90;;
82288;SDS011;71889;39.264;-120.910;2024-01-30T11:54:40;3.08;;;0.70;;
82288;SDS011;71889;39.264;-120.910;2024-01-30T11:57:07;1.05;;;0.40;;
82288;SDS011;71889;39.264;-120.910;2024-01-30T11:59:34;1.20;;;0.50;;
82288;SDS011;71889;39.264;-120.910;2024-01-30T12:02:00;2.05;;;0.32;;
82288;SDS011;71889;39.264;-120.910;2024-01-30T12:04:28;0.80;;;0.40;;
82288;SDS011;71889;39.264;-120.910;2024-01-30T12:06:55;0.77;;;0.43;;
82288;SDS011;71889;39.264;-120.910;2024-01-30T12:09:22;3.42;;;0.40;;
82288;SDS011;71889;39.264;-120.910;2024-01-30T12:11:51;2.22;;;0.40;;
82288;SDS011;71889;39.264;-120.910;2024-01-30T12:14:17;3.13;;;0.60;;
82288;SDS011;71889;39.264;-120.910;2024-01-30T12:16:48;0.50;;;0.25;;
82288;SDS011;71889;39.264;-120.910;2024-01-30T12:19:23;0.82;;;0.40;;
82288;SDS011;71889;39.264;-120.910;2024-01-30T12:21:56;2.63;;;0.40;;
82288;SDS011;71889;39.264;-120.910;2024-01-30T12:24:25;1.40;;;0.43;;
82288;SDS011;71889;39.264;-120.910;2024-01-30T12:26:52;0.88;;;0.40;;
82288;SDS011;71889;39.264;-120.910;2024-01-30T12:29:19;1.77;;;0.82;;
82288;SDS011;71889;39.264;-120.910;2024-01-30T12:31:47;1.50;;;0.57;;
82288;SDS011;71889;39.264;-120.910;2024-01-30T12:34:14;0.57;;;0.25;;
82288;SDS011;71889;39.264;-120.910;2024-01-30T12:36:48;0.63;;;0.40;;
82288;SDS011;71889;39.264;-120.910;2024-01-30T12:39:15;0.77;;;0.30;;
82288;SDS011;71889;39.264;-120.910;2024-01-30T12:41:42;2.95;;;0.55;;
82288;SDS011;71889;39.264;-120.910;2024-01-30T12:44:09;0.68;;;0.30;;
82288;SDS011;71889;39.264;-120.910;2024-01-30T12:46:35;0.85;;;0.30;;
82288;SDS011;71889;39.264;-120.910;2024-01-30T12:49:02;0.57;;;0.20;;
82288;SDS011;71889;39.264;-120.910;2024-01-30T12:51:29;1.00;;;0.30;;
82288;SDS011;71889;39.264;-120.910;2024-01-30T12:53:56;0.30;;;0.15;;
82288;SDS011;71889;39.264;-120.910;2024-01-30T12:56:22;0.70;;;0.30;;
82288;SDS011;71889;39.264;-120.910;2024-01-30T12:58:49;1.27;;;0.30;;
82288;SDS011;71889;39.264;-120.910;2024-01-30T13:01:16;0.40;;;0.25;;
82288;SDS011;71889;39.264;-120.910;2024-01-30T13:03:42;0.63;;;0.30;;
82288;SDS011;71889;39.264;-120.910;2024-01-30T13:06:09;1.02;;;0.40;;
82288;SDS011;71889;39.264;-120.910;2024-01-30T13:08:36;0.82;;;0.40;;
82288;SDS011;71889;39.264;-120.910;2024-01-30T13:11:03;0.85;;;0.35;;
82288;SDS011;71889;39.264;-120.910;2024-01-30T13:13:30;0.73;;;0.40;;
82288;SDS011;71889;39.264;-120.910;2024-01-30T13:15:57;0.35;;;0.20;;
82288;SDS011;71889;39.264;-120.910;2024-01-30T13:18:23;0.60;;;0.35;;
82288;SDS011;71889;39.264;-120.910;2024-01-30T13:20:50;2.78;;;0.73;;
82288;SDS011;71889;39.264;-120.910;2024-01-30T13:23:17;1.90;;;0.40;;
82288;SDS011;71889;39.264;-120.910;2024-01-30T13:25:44;0.55;;;0.32;;
82288;SDS011;71889;39.264;-120.910;2024-01-30T13:28:11;0.85;;;0.40;;
82288;SDS011;71889;39.264;-120.910;2024-01-30T13:30:38;0.85;;;0.30;;
82288;SDS011;71889;39.264;-120.910;2024-01-30T13:33:05;1.77;;;0.50;;
82288;SDS011;71889;39.264;-120.910;2024-01-30T13:35:32;1.92;;;0.90;;
82288;SDS011;71889;39.264;-120.910;2024-01-30T13:37:58;2.60;;;1.40;;
82288;SDS011;71889;39.264;-120.910;2024-01-30T13:40:25;6.53;;;2.55;;
82288;SDS011;71889;39.264;-120.910;2024-01-30T13:42:52;3.17;;;1.23;;
82288;SDS011;71889;39.264;-120.910;2024-01-30T13:45:19;3.13;;;1.40;;
82288;SDS011;71889;39.264;-120.910;2024-01-30T13:47:46;4.43;;;2.47;;
82288;SDS011;71889;39.264;-120.910;2024-01-30T13:50:13;3.70;;;2.03;;
82288;SDS011;71889;39.264;-120.910;2024-01-30T13:52:42;3.45;;;1.75;;
82288;SDS011;71889;39.264;-120.910;2024-01-30T13:55:09;2.03;;;1.00;;
82288;SDS011;71889;39.264;-120.910;2024-01-30T13:57:36;2.38;;;0.73;;
82288;SDS011;71889;39.264;-120.910;2024-01-30T14:00:03;0.75;;;0.50;;
82288;SDS011;71889;39.264;-120.910;2024-01-30T14:02:32;1.88;;;0.47;;
82288;SDS011;71889;39.264;-120.910;2024-01-30T14:04:58;1.33;;;0.68;;
82288;SDS011;71889;39.264;-120.910;2024-01-30T14:07:25;0.90;;;0.50;;
82288;SDS011;71889;39.264;-120.910;2024-01-30T14:09:52;0.63;;;0.38;;
82288;SDS011;71889;39.264;-120.910;2024-01-30T14:12:18;1.25;;;0.45;;
82288;SDS011;71889;39.264;-120.910;2024-01-30T14:14:45;1.48;;;0.30;;